createdAt,value
2022-10-15T00:00:11.532Z,6.10
2022-10-15T00:02:38.574Z,6.33
2022-10-15T00:05:05.813Z,6.30
2022-10-15T00:07:32.886Z,6.50
2022-10-15T00:09:59.986Z,6.20
2022-10-15T00:12:27.020Z,6.30
2022-10-15T00:14:54.710Z,5.87
2022-10-15T00:17:22.057Z,5.47
2022-10-15T00:19:49.351Z,6.57
2022-10-15T00:22:16.448Z,5.30
2022-10-15T00:24:43.551Z,6.03
2022-10-15T00:27:10.641Z,6.53
2022-10-15T00:29:37.667Z,6.80
2022-10-15T00:32:04.738Z,6.30
2022-10-15T00:34:31.827Z,6.03
2022-10-15T00:36:58.922Z,5.83
2022-10-15T00:39:25.972Z,5.10
2022-10-15T00:41:53.052Z,4.83
2022-10-15T00:44:22.887Z,5.63
2022-10-15T00:46:51.047Z,5.07
2022-10-15T00:49:24.643Z,5.60
2022-10-15T00:52:06.702Z,5.80
2022-10-15T00:54:37.904Z,5.47
2022-10-15T00:57:06.644Z,5.90
2022-10-15T00:59:35.411Z,6.07
2022-10-15T01:02:02.796Z,5.80
2022-10-15T01:04:30.399Z,5.97
2022-10-15T01:06:57.497Z,5.90
2022-10-15T01:09:24.772Z,5.83
2022-10-15T01:11:52.718Z,5.90
2022-10-15T01:14:25.862Z,5.90
2022-10-15T01:17:00.706Z,6.20
2022-10-15T01:19:38.235Z,6.27
2022-10-15T01:22:06.962Z,5.73
2022-10-15T01:24:33.991Z,5.20
2022-10-15T01:27:10.856Z,5.97
2022-10-15T01:29:53.099Z,5.47
2022-10-15T01:32:20.223Z,5.50
2022-10-15T01:35:06.142Z,5.80
2022-10-15T01:37:36.250Z,6.17
2022-10-15T01:40:14.685Z,5.73
2022-10-15T01:42:47.128Z,5.67
2022-10-15T01:45:17.155Z,5.90
2022-10-15T01:47:55.100Z,6.00
2022-10-15T01:50:24.182Z,5.70
2022-10-15T01:52:51.890Z,5.70
2022-10-15T01:55:20.095Z,5.93
2022-10-15T01:57:47.792Z,5.87
2022-10-15T02:00:15.111Z,5.77
2022-10-15T02:02:42.623Z,5.73
2022-10-15T02:05:22.187Z,5.93
2022-10-15T02:07:57.703Z,6.47
2022-10-15T02:13:22.093Z,5.80
2022-10-15T02:15:49.132Z,6.30
2022-10-15T02:18:28.970Z,6.20
2022-10-15T02:20:56.015Z,6.30
2022-10-15T02:23:26.280Z,6.70
2022-10-15T02:25:54.051Z,6.53
2022-10-15T02:28:22.646Z,6.67
2022-10-15T02:30:52.846Z,7.07
2022-10-15T02:33:20.935Z,6.93
2022-10-15T02:35:48.382Z,7.40
2022-10-15T02:38:17.355Z,7.30
2022-10-15T02:40:45.122Z,7.30
2022-10-15T02:43:13.767Z,6.90
2022-10-15T02:45:41.113Z,7.80
2022-10-15T02:48:08.375Z,7.90
2022-10-15T02:50:35.495Z,7.70
2022-10-15T02:53:02.685Z,7.27
2022-10-15T02:55:29.758Z,7.73
2022-10-15T02:57:56.864Z,7.83
2022-10-15T03:00:23.964Z,7.60
2022-10-15T03:02:51.149Z,9.90
2022-10-15T03:05:18.346Z,8.20
2022-10-15T03:07:45.426Z,8.23
2022-10-15T03:10:12.612Z,8.30
2022-10-15T03:12:39.695Z,6.87
2022-10-15T03:15:07.228Z,7.50
2022-10-15T03:17:34.298Z,6.33
2022-10-15T03:20:01.461Z,7.40
2022-10-15T03:22:28.584Z,7.40
2022-10-15T03:24:55.706Z,7.00
2022-10-15T03:27:23.043Z,7.43
2022-10-15T03:29:50.282Z,7.23
2022-10-15T03:32:17.395Z,7.37
2022-10-15T03:34:44.445Z,7.70
2022-10-15T03:37:11.708Z,7.90
2022-10-15T03:39:38.848Z,6.97
2022-10-15T03:42:06.104Z,7.70
2022-10-15T03:44:34.210Z,7.47
2022-10-15T03:47:01.364Z,8.17
2022-10-15T03:49:28.451Z,7.57
2022-10-15T03:51:55.583Z,7.37
2022-10-15T03:54:22.636Z,7.00
2022-10-15T03:56:49.778Z,7.57
2022-10-15T03:59:16.877Z,7.37
2022-10-15T04:01:44.745Z,7.27
2022-10-15T04:04:12.952Z,7.97
2022-10-15T04:06:40.423Z,7.53
2022-10-15T04:09:07.538Z,7.33
2022-10-15T04:11:34.615Z,8.20
2022-10-15T04:14:01.911Z,8.20
2022-10-15T04:16:28.980Z,8.97
2022-10-15T04:18:57.689Z,7.97
2022-10-15T04:21:25.099Z,9.13
2022-10-15T04:23:52.230Z,9.27
2022-10-15T04:26:19.313Z,10.10
2022-10-15T04:28:48.108Z,8.77
2022-10-15T04:31:15.586Z,10.00
2022-10-15T04:33:42.726Z,10.10
2022-10-15T04:36:12.990Z,10.70
2022-10-15T04:38:40.522Z,11.17
2022-10-15T04:41:09.481Z,11.00
2022-10-15T04:43:37.355Z,10.27
2022-10-15T04:46:05.641Z,10.57
2022-10-15T04:48:36.579Z,10.57
2022-10-15T04:51:07.311Z,10.97
2022-10-15T04:53:34.586Z,10.07
2022-10-15T04:56:05.571Z,10.10
2022-10-15T04:58:33.156Z,10.27
2022-10-15T05:01:04.395Z,9.80
2022-10-15T05:06:07.587Z,10.43
2022-10-15T05:08:35.337Z,11.30
2022-10-15T05:11:03.032Z,10.50
2022-10-15T05:13:30.805Z,9.43
2022-10-15T05:15:58.177Z,9.13
2022-10-15T05:18:25.257Z,7.97
2022-10-15T05:20:52.294Z,6.43
2022-10-15T05:23:19.357Z,7.47
2022-10-15T05:25:50.388Z,3.77
2022-10-15T05:28:20.361Z,5.10
2022-10-15T05:30:47.488Z,5.50
2022-10-15T05:33:14.525Z,3.80
2022-10-15T05:35:41.596Z,3.87
2022-10-15T05:38:08.659Z,3.93
2022-10-15T05:40:35.714Z,3.13
2022-10-15T05:43:02.763Z,3.53
2022-10-15T05:45:29.817Z,3.40
2022-10-15T05:47:57.203Z,3.33
2022-10-15T05:50:24.470Z,3.33
2022-10-15T05:52:51.576Z,3.87
2022-10-15T05:55:18.671Z,3.30
2022-10-15T05:57:45.706Z,3.67
2022-10-15T06:00:13.117Z,2.83
2022-10-15T06:02:40.464Z,3.67
2022-10-15T06:05:07.833Z,3.27
2022-10-15T06:07:34.940Z,2.10
2022-10-15T06:10:02.056Z,4.07
2022-10-15T06:12:29.285Z,2.70
2022-10-15T06:14:56.356Z,3.00
2022-10-15T06:17:23.543Z,2.90
2022-10-15T06:19:50.819Z,3.40
2022-10-15T06:22:17.891Z,3.60
2022-10-15T06:24:44.952Z,3.77
2022-10-15T06:27:13.130Z,2.77
2022-10-15T06:29:40.626Z,2.10
2022-10-15T06:32:11.240Z,3.50
2022-10-15T06:34:38.334Z,3.03
2022-10-15T06:37:05.461Z,2.70
2022-10-15T06:39:32.501Z,2.47
2022-10-15T06:41:59.598Z,1.90
2022-10-15T06:44:26.661Z,1.70
2022-10-15T06:46:53.752Z,1.83
2022-10-15T06:49:20.827Z,1.73
2022-10-15T06:51:47.951Z,1.47
2022-10-15T06:54:15.094Z,1.57
2022-10-15T06:56:42.184Z,1.53
2022-10-15T06:59:09.262Z,1.70
2022-10-15T07:01:38.595Z,1.30
2022-10-15T07:04:08.580Z,1.50
2022-10-15T07:06:36.176Z,1.70
2022-10-15T07:09:03.628Z,1.40
2022-10-15T07:11:30.769Z,1.63
2022-10-15T07:13:58.169Z,1.63
2022-10-15T07:16:25.388Z,1.70
2022-10-15T07:18:52.528Z,1.60
2022-10-15T07:21:19.645Z,1.33
2022-10-15T07:23:46.746Z,1.20
2022-10-15T07:26:13.821Z,1.30
2022-10-15T07:28:41.028Z,1.20
2022-10-15T07:31:08.777Z,1.00
2022-10-15T07:33:36.330Z,1.00
2022-10-15T07:36:06.879Z,1.00
2022-10-15T07:38:34.534Z,0.80
2022-10-15T07:41:02.784Z,0.90
2022-10-15T07:43:30.614Z,0.73
2022-10-15T07:45:57.696Z,0.83
2022-10-15T07:48:25.246Z,0.80
2022-10-15T07:50:59.004Z,0.97
2022-10-15T07:53:26.503Z,0.83
2022-10-15T07:55:53.757Z,1.07
2022-10-15T07:58:20.923Z,0.97
2022-10-15T08:00:48.007Z,1.10
2022-10-15T08:03:15.110Z,0.97
2022-10-15T08:05:42.202Z,1.00
2022-10-15T08:08:09.321Z,1.20
2022-10-15T08:10:37.255Z,1.00
2022-10-15T08:13:04.326Z,1.00
2022-10-15T08:15:31.361Z,0.90
2022-10-15T08:17:59.949Z,0.70
2022-10-15T08:20:27.094Z,0.77
2022-10-15T08:22:54.158Z,0.80
2022-10-15T08:25:21.205Z,0.70
2022-10-15T08:27:48.264Z,0.77
2022-10-15T08:30:15.394Z,0.80
2022-10-15T08:32:42.471Z,0.90
2022-10-15T08:35:09.672Z,1.00
2022-10-15T08:37:36.744Z,0.90
2022-10-15T08:40:04.468Z,0.90
2022-10-15T08:42:50.993Z,0.90
2022-10-15T08:45:20.286Z,1.20
2022-10-15T08:47:49.236Z,1.40
2022-10-15T08:50:34.761Z,1.40
2022-10-15T08:53:02.015Z,1.40
2022-10-15T08:55:30.471Z,1.70
2022-10-15T08:58:04.189Z,1.73
2022-10-15T09:00:35.190Z,1.70
2022-10-15T09:03:02.983Z,1.90
2022-10-15T09:05:50.823Z,1.80
2022-10-15T09:08:41.993Z,1.80
2022-10-15T09:11:24.768Z,1.70
2022-10-15T09:13:52.189Z,1.60
2022-10-15T09:16:22.065Z,1.57
2022-10-15T09:18:52.251Z,1.60
2022-10-15T09:21:20.674Z,1.50
2022-10-15T09:23:47.729Z,1.47
2022-10-15T09:26:21.007Z,1.37
2022-10-15T09:29:01.987Z,1.10
2022-10-15T09:31:30.980Z,1.47
2022-10-15T09:34:05.576Z,1.20
2022-10-15T09:36:52.474Z,1.23
2022-10-15T09:39:38.474Z,0.90
2022-10-15T09:42:11.904Z,0.95
2022-10-15T09:44:40.633Z,0.85
2022-10-15T09:47:18.522Z,1.00
2022-10-15T09:49:45.595Z,0.90
2022-10-15T09:52:26.471Z,1.00
2022-10-15T09:55:12.348Z,0.80
2022-10-15T09:57:40.224Z,1.00
2022-10-15T10:00:11.767Z,0.85
2022-10-15T10:02:38.938Z,1.00
2022-10-15T10:05:20.567Z,0.73
2022-10-15T10:07:47.740Z,1.00
2022-10-15T10:10:28.862Z,0.80
2022-10-15T10:12:57.120Z,0.70
2022-10-15T10:15:35.037Z,0.60
2022-10-15T10:18:02.621Z,0.70
2022-10-15T10:20:30.956Z,0.63
2022-10-15T10:23:02.093Z,0.63
2022-10-15T10:25:42.509Z,0.60
2022-10-15T10:28:09.890Z,0.80
2022-10-15T10:30:38.181Z,0.60
2022-10-15T10:33:05.913Z,0.60
2022-10-15T10:35:44.172Z,0.55
2022-10-15T10:38:26.527Z,0.50
2022-10-15T10:40:55.330Z,0.65
2022-10-15T10:43:25.513Z,0.60
2022-10-15T10:45:55.382Z,0.52
2022-10-15T10:48:24.111Z,0.50
2022-10-15T10:51:02.159Z,0.60
2022-10-15T10:53:29.221Z,0.52
2022-10-15T10:55:57.355Z,0.68
2022-10-15T10:58:27.147Z,0.75
2022-10-15T11:00:55.687Z,0.60
2022-10-15T11:03:31.942Z,0.60
2022-10-15T11:06:02.695Z,0.60
2022-10-15T11:08:37.236Z,0.70
2022-10-15T11:11:12.048Z,0.60
2022-10-15T11:13:44.897Z,0.60
2022-10-15T11:16:16.269Z,0.70
2022-10-15T11:19:06.165Z,0.60
2022-10-15T11:21:50.003Z,0.80
2022-10-15T11:24:19.847Z,0.73
2022-10-15T11:27:09.621Z,0.70
2022-10-15T11:29:36.714Z,0.65
2022-10-15T11:32:14.707Z,0.82
2022-10-15T11:35:09.924Z,0.70
2022-10-15T11:37:49.086Z,0.70
2022-10-15T11:40:32.613Z,0.60
2022-10-15T11:43:01.442Z,0.70
2022-10-15T11:45:48.644Z,0.60
2022-10-15T11:48:24.565Z,0.70
2022-10-15T11:51:04.812Z,0.70
2022-10-15T11:53:50.351Z,0.57
2022-10-15T11:56:24.038Z,0.70
2022-10-15T11:58:51.151Z,0.60
2022-10-15T12:01:28.071Z,0.70
2022-10-15T12:04:01.511Z,0.60
2022-10-15T12:06:32.033Z,0.80
2022-10-15T12:09:00.199Z,0.52
2022-10-15T12:11:31.836Z,0.65
2022-10-15T12:14:06.262Z,0.50
2022-10-15T12:16:45.173Z,0.50
2022-10-15T12:19:18.462Z,0.70
2022-10-15T12:22:06.422Z,0.60
2022-10-15T12:24:47.561Z,0.50
2022-10-15T12:27:20.870Z,0.40
2022-10-15T12:30:14.483Z,0.45
2022-10-15T12:32:42.703Z,0.70
2022-10-15T12:35:15.799Z,1.02
2022-10-15T12:37:47.950Z,0.57
2022-10-15T12:40:24.325Z,0.52
2022-10-15T12:43:14.574Z,0.70
2022-10-15T12:45:48.752Z,0.60
2022-10-15T12:48:15.793Z,0.60
2022-10-15T12:50:43.076Z,0.50
2022-10-15T12:53:34.540Z,0.50
2022-10-15T12:56:10.933Z,0.50
2022-10-15T12:58:38.808Z,0.50
2022-10-15T13:01:14.902Z,0.60
2022-10-15T13:03:51.308Z,0.77
2022-10-15T13:06:21.188Z,0.60
2022-10-15T13:08:48.262Z,0.60
2022-10-15T13:11:21.646Z,0.60
2022-10-15T13:13:50.013Z,0.77
2022-10-15T13:16:17.273Z,0.88
2022-10-15T13:18:48.669Z,0.82
2022-10-15T13:21:15.721Z,0.65
2022-10-15T13:23:47.246Z,0.82
2022-10-15T13:26:27.256Z,0.95
2022-10-15T13:28:57.724Z,0.80
2022-10-15T13:31:29.291Z,0.80
2022-10-15T13:34:03.616Z,0.95
2022-10-15T13:36:33.026Z,0.90
2022-10-15T13:39:07.589Z,0.65
2022-10-15T13:41:40.228Z,0.95
2022-10-15T13:44:07.329Z,0.80
2022-10-15T13:46:38.673Z,0.88
2022-10-15T13:49:11.789Z,1.00
2022-10-15T13:51:40.076Z,0.95
2022-10-15T13:54:15.801Z,1.17
2022-10-15T13:56:47.877Z,0.80
2022-10-15T13:59:18.434Z,0.80
2022-10-15T14:01:47.031Z,0.80
2022-10-15T14:04:15.551Z,0.83
2022-10-15T14:06:43.937Z,0.60
2022-10-15T14:09:19.072Z,0.70
2022-10-15T14:11:46.598Z,0.63
2022-10-15T14:14:30.598Z,0.70
2022-10-15T14:16:59.000Z,0.50
2022-10-15T14:19:30.049Z,0.60
2022-10-15T14:21:58.255Z,0.60
2022-10-15T14:24:28.390Z,0.70
2022-10-15T14:26:55.634Z,0.63
2022-10-15T14:29:28.356Z,0.70
2022-10-15T14:31:55.453Z,0.80
2022-10-15T14:34:30.917Z,0.70
2022-10-15T14:36:58.014Z,0.63
2022-10-15T14:39:32.783Z,0.60
2022-10-15T14:42:07.539Z,0.53
2022-10-15T14:44:47.694Z,0.70
2022-10-15T14:47:26.409Z,0.80
2022-10-15T14:49:55.650Z,0.77
2022-10-15T14:52:23.319Z,0.80
2022-10-15T14:55:13.165Z,0.70
2022-10-15T14:57:42.344Z,0.53
2022-10-15T15:00:16.004Z,0.70
2022-10-15T15:02:43.257Z,0.80
2022-10-15T15:05:13.186Z,0.50
2022-10-15T15:07:40.849Z,0.80
2022-10-15T15:10:08.814Z,0.70
2022-10-15T15:12:36.289Z,0.63
2022-10-15T15:15:03.464Z,0.70
2022-10-15T15:17:31.128Z,0.77
2022-10-15T15:19:58.569Z,0.70
2022-10-15T15:22:30.373Z,0.70
2022-10-15T15:25:17.688Z,0.87
2022-10-15T15:27:44.779Z,1.00
2022-10-15T15:30:16.615Z,0.80
2022-10-15T15:32:43.762Z,0.80
2022-10-15T15:35:20.107Z,0.77
2022-10-15T15:37:47.192Z,0.80
2022-10-15T15:40:14.294Z,0.80
2022-10-15T15:42:42.088Z,0.93
2022-10-15T15:45:20.450Z,1.00
2022-10-15T15:47:47.618Z,0.90
2022-10-15T15:50:15.357Z,1.03
2022-10-15T15:52:43.669Z,1.00
2022-10-15T15:55:11.180Z,0.90
2022-10-15T16:01:07.498Z,0.87
2022-10-15T16:03:34.603Z,0.93
2022-10-15T16:06:01.675Z,0.90
2022-10-15T16:08:28.799Z,0.90
2022-10-15T16:10:55.841Z,1.60
2022-10-15T16:13:22.938Z,1.00
2022-10-15T16:15:50.042Z,0.90
2022-10-15T16:18:17.109Z,0.83
2022-10-15T16:20:48.413Z,1.00
2022-10-15T16:23:15.811Z,1.00
2022-10-15T16:25:42.894Z,0.87
2022-10-15T16:28:10.002Z,1.00
2022-10-15T16:30:37.068Z,0.90
2022-10-15T16:35:38.742Z,0.90
2022-10-15T16:38:06.024Z,0.80
2022-10-15T16:40:33.600Z,1.00
2022-10-15T16:43:00.698Z,1.00
2022-10-15T16:45:27.816Z,1.00
2022-10-15T16:47:55.009Z,1.00
2022-10-15T16:50:22.682Z,1.00
2022-10-15T16:52:49.757Z,0.80
2022-10-15T16:55:16.962Z,0.80
2022-10-15T16:57:44.492Z,1.10
2022-10-15T17:00:12.030Z,0.70
2022-10-15T17:02:39.199Z,0.80
2022-10-15T17:05:06.531Z,1.17
2022-10-15T17:07:33.592Z,1.07
2022-10-15T17:10:00.798Z,0.90
2022-10-15T17:12:28.396Z,0.97
2022-10-15T17:14:55.685Z,1.10
2022-10-15T17:17:22.783Z,1.13
2022-10-15T17:19:49.902Z,1.17
2022-10-15T17:22:16.996Z,1.00
2022-10-15T17:24:44.213Z,0.93
2022-10-15T17:27:11.279Z,1.10
2022-10-15T17:29:38.384Z,1.10
2022-10-15T17:32:05.550Z,1.13
2022-10-15T17:34:32.695Z,1.00
2022-10-15T17:36:59.782Z,1.00
2022-10-15T17:39:26.976Z,1.00
2022-10-15T17:41:54.062Z,1.08
2022-10-15T17:44:21.129Z,1.00
2022-10-15T17:49:18.423Z,1.00
2022-10-15T17:51:45.745Z,1.40
2022-10-15T17:54:12.821Z,1.43
2022-10-15T17:56:39.934Z,2.07
2022-10-15T17:59:07.791Z,4.87
2022-10-15T18:04:23.150Z,1.30
2022-10-15T18:06:50.289Z,6.07
2022-10-15T18:09:17.391Z,2.30
2022-10-15T18:11:46.499Z,1.10
2022-10-15T18:14:13.731Z,1.30
2022-10-15T18:16:40.847Z,1.27
2022-10-15T18:19:08.059Z,1.40
2022-10-15T18:21:35.274Z,1.30
2022-10-15T18:24:02.344Z,1.20
2022-10-15T18:26:29.421Z,1.00
2022-10-15T18:28:56.580Z,1.20
2022-10-15T18:31:26.079Z,1.20
2022-10-15T18:33:55.489Z,1.10
2022-10-15T18:36:26.749Z,1.20
2022-10-15T18:38:54.070Z,1.20
2022-10-15T18:41:26.174Z,1.30
2022-10-15T18:43:53.940Z,1.50
2022-10-15T18:46:21.333Z,0.97
2022-10-15T18:48:48.911Z,1.40
2022-10-15T18:51:15.993Z,2.20
2022-10-15T18:53:43.068Z,1.30
2022-10-15T18:56:12.718Z,8.23
2022-10-15T18:58:42.681Z,1.30
2022-10-15T19:01:28.634Z,2.50
2022-10-15T19:03:59.995Z,2.40
2022-10-15T19:06:32.145Z,2.97
2022-10-15T19:08:59.607Z,1.20
2022-10-15T19:11:26.765Z,3.67
2022-10-15T19:13:53.911Z,1.40
2022-10-15T19:16:20.991Z,1.20
2022-10-15T19:18:48.075Z,2.20
2022-10-15T19:21:15.638Z,2.40
2022-10-15T19:23:42.756Z,1.80
2022-10-15T19:26:10.531Z,1.00
2022-10-15T19:28:38.245Z,1.80
2022-10-15T19:31:06.470Z,1.40
2022-10-15T19:33:33.661Z,0.97
2022-10-15T19:36:00.916Z,1.43
2022-10-15T19:38:28.368Z,1.00
2022-10-15T19:40:55.942Z,1.40
2022-10-15T19:43:23.641Z,1.97
2022-10-15T19:45:50.736Z,1.10
2022-10-15T19:48:18.881Z,1.00
2022-10-15T19:50:46.974Z,0.90
2022-10-15T19:53:16.316Z,1.20
2022-10-15T19:55:44.145Z,0.90
2022-10-15T19:58:11.222Z,1.00
2022-10-15T20:00:38.358Z,1.10
2022-10-15T20:03:05.537Z,1.10
2022-10-15T20:05:32.626Z,0.80
2022-10-15T20:07:59.720Z,0.90
2022-10-15T20:10:27.059Z,1.20
2022-10-15T20:12:54.300Z,1.10
2022-10-15T20:15:21.377Z,1.30
2022-10-15T20:17:48.453Z,1.23
2022-10-15T20:20:15.707Z,0.97
2022-10-15T20:22:42.858Z,1.37
2022-10-15T20:25:09.972Z,2.00
2022-10-15T20:27:37.035Z,3.23
2022-10-15T20:30:04.632Z,1.73
2022-10-15T20:32:35.485Z,1.30
2022-10-15T20:35:03.698Z,2.40
2022-10-15T20:37:30.869Z,1.90
2022-10-15T20:39:59.746Z,2.40
2022-10-15T20:42:27.639Z,1.90
2022-10-15T20:44:54.995Z,1.30
2022-10-15T20:47:22.885Z,2.27
2022-10-15T20:49:51.262Z,2.20
2022-10-15T20:52:19.604Z,1.80
2022-10-15T20:54:46.784Z,3.93
2022-10-15T20:57:14.095Z,1.30
2022-10-15T20:59:41.164Z,1.73
2022-10-15T21:02:08.205Z,1.40
2022-10-15T21:04:35.314Z,1.30
2022-10-15T21:07:02.390Z,1.30
2022-10-15T21:09:29.535Z,1.20
2022-10-15T21:11:56.705Z,1.10
2022-10-15T21:14:23.774Z,1.80
2022-10-15T21:16:50.911Z,1.80
2022-10-15T21:19:18.265Z,1.33
2022-10-15T21:21:45.358Z,1.27
2022-10-15T21:24:13.239Z,1.37
2022-10-15T21:26:40.480Z,1.10
2022-10-15T21:29:12.975Z,1.10
2022-10-15T21:31:40.033Z,1.20
2022-10-15T21:34:07.143Z,1.90
2022-10-15T21:36:34.228Z,1.20
2022-10-15T21:39:02.206Z,1.20
2022-10-15T21:41:31.233Z,1.60
2022-10-15T21:43:59.149Z,1.40
2022-10-15T21:46:26.652Z,1.50
2022-10-15T21:48:54.176Z,1.30
2022-10-15T21:51:23.772Z,1.67
2022-10-15T21:53:50.852Z,1.30
2022-10-15T21:56:18.009Z,1.30
2022-10-15T21:58:45.465Z,1.10
2022-10-15T22:01:23.684Z,1.20
2022-10-15T22:03:52.213Z,1.40
2022-10-15T22:06:20.019Z,1.30
2022-10-15T22:08:47.582Z,1.50
2022-10-15T22:13:58.540Z,1.20
2022-10-15T22:16:26.361Z,1.27
2022-10-15T22:18:53.454Z,1.20
2022-10-15T22:21:24.848Z,1.30
2022-10-15T22:23:53.656Z,1.30
2022-10-15T22:26:22.106Z,1.20
2022-10-15T22:28:49.260Z,1.30
2022-10-15T22:31:17.366Z,1.37
2022-10-15T22:33:45.260Z,1.30
2022-10-15T22:36:19.663Z,1.57
2022-10-15T22:38:47.909Z,1.20
2022-10-15T22:41:15.679Z,1.30
2022-10-15T22:43:43.001Z,1.47
2022-10-15T22:46:10.545Z,1.40
2022-10-15T22:48:38.449Z,1.23
2022-10-15T22:51:06.761Z,1.60
2022-10-15T22:53:34.105Z,1.10
2022-10-15T22:56:13.409Z,1.47
2022-10-15T22:58:40.546Z,1.13
2022-10-15T23:01:15.320Z,1.27
2022-10-15T23:03:43.590Z,1.40
2022-10-15T23:06:11.258Z,1.60
2022-10-15T23:08:38.836Z,2.37
2022-10-15T23:11:09.646Z,2.20
2022-10-15T23:13:37.463Z,2.00
2022-10-15T23:16:21.594Z,1.60
2022-10-15T23:18:52.575Z,1.50
2022-10-15T23:21:21.574Z,1.60
2022-10-15T23:23:48.677Z,1.93
2022-10-15T23:26:17.061Z,1.80
2022-10-15T23:28:45.344Z,1.80
2022-10-15T23:31:25.719Z,1.60
2022-10-15T23:33:53.803Z,1.90
2022-10-15T23:36:21.451Z,1.50
2022-10-15T23:38:52.730Z,1.63
2022-10-15T23:41:20.040Z,2.00
2022-10-15T23:43:47.453Z,2.17
2022-10-15T23:46:15.018Z,2.10
2022-10-15T23:48:42.251Z,1.40
2022-10-15T23:51:20.531Z,1.47
2022-10-15T23:53:47.943Z,1.60
2022-10-15T23:56:15.482Z,1.30
2022-10-15T23:58:43.169Z,1.40
